createdAt,value
2023-02-27T00:02:18.931Z,100.00
2023-02-27T00:07:15.351Z,100.00
2023-02-27T00:12:12.105Z,100.00
2023-02-27T00:17:08.604Z,100.00
2023-02-27T00:22:05.286Z,100.00
2023-02-27T00:27:01.806Z,100.00
2023-02-27T00:31:58.268Z,100.00
2023-02-27T00:36:54.710Z,100.00
2023-02-27T00:41:51.044Z,100.00
2023-02-27T00:46:47.474Z,100.00
2023-02-27T00:51:43.855Z,100.00
2023-02-27T00:56:41.114Z,100.00
2023-02-27T01:01:37.767Z,100.00
2023-02-27T01:06:34.155Z,100.00
2023-02-27T01:11:30.797Z,100.00
2023-02-27T01:16:27.399Z,100.00
2023-02-27T01:21:24.856Z,100.00
2023-02-27T01:26:21.539Z,100.00
2023-02-27T01:31:18.012Z,100.00
2023-02-27T01:36:14.389Z,100.00
2023-02-27T01:41:11.039Z,100.00
2023-02-27T01:46:07.399Z,100.00
2023-02-27T01:51:09.069Z,100.00
2023-02-27T01:56:10.406Z,100.00
2023-02-27T02:01:07.070Z,100.00
2023-02-27T02:06:06.033Z,100.00
2023-02-27T02:11:03.057Z,100.00
2023-02-27T02:16:26.268Z,100.00
2023-02-27T02:21:49.636Z,100.00
2023-02-27T02:26:53.445Z,100.00
2023-02-27T02:32:08.713Z,100.00
2023-02-27T02:37:31.026Z,100.00
2023-02-27T02:42:39.624Z,100.00
2023-02-27T02:48:04.523Z,100.00
2023-02-27T02:53:08.441Z,100.00
2023-02-27T02:58:14.595Z,100.00
2023-02-27T03:03:26.113Z,100.00
2023-02-27T03:08:28.451Z,100.00
2023-02-27T03:13:30.982Z,100.00
2023-02-27T03:18:34.829Z,100.00
2023-02-27T03:23:38.250Z,100.00
2023-02-27T03:28:39.315Z,100.00
2023-02-27T03:33:42.438Z,100.00
2023-02-27T03:39:05.567Z,100.00
2023-02-27T03:44:16.913Z,100.00
2023-02-27T03:49:13.276Z,100.00
2023-02-27T03:54:16.869Z,100.00
2023-02-27T03:59:13.957Z,100.00
2023-02-27T04:04:13.565Z,100.00
2023-02-27T04:09:43.030Z,100.00
2023-02-27T04:14:52.164Z,100.00
2023-02-27T04:20:17.322Z,100.00
2023-02-27T04:25:39.442Z,100.00
2023-02-27T04:31:02.277Z,100.00
2023-02-27T04:36:18.455Z,100.00
2023-02-27T04:41:23.059Z,100.00
2023-02-27T04:46:24.664Z,100.00
2023-02-27T04:51:26.490Z,100.00
2023-02-27T04:56:35.282Z,100.00
2023-02-27T05:01:36.901Z,100.00
2023-02-27T05:06:36.612Z,100.00
2023-02-27T05:11:42.736Z,100.00
2023-02-27T05:16:44.539Z,100.00
2023-02-27T05:22:24.420Z,100.00
2023-02-27T05:27:35.997Z,100.00
2023-02-27T05:32:45.081Z,100.00
2023-02-27T05:37:56.124Z,100.00
2023-02-27T05:43:02.814Z,100.00
2023-02-27T05:48:04.890Z,100.00
2023-02-27T05:53:04.498Z,100.00
2023-02-27T05:58:10.167Z,100.00
2023-02-27T06:03:06.721Z,100.00
2023-02-27T06:08:03.745Z,100.00
2023-02-27T06:13:00.092Z,100.00
2023-02-27T06:17:56.620Z,100.00
2023-02-27T06:22:52.979Z,100.00
2023-02-27T06:27:49.382Z,100.00
2023-02-27T06:32:47.046Z,100.00
2023-02-27T06:37:43.400Z,100.00
2023-02-27T06:42:44.001Z,100.00
2023-02-27T06:47:41.197Z,100.00
2023-02-27T06:52:38.932Z,100.00
2023-02-27T06:57:35.526Z,100.00
2023-02-27T07:02:32.129Z,100.00
2023-02-27T07:07:33.199Z,100.00
2023-02-27T07:12:32.943Z,100.00
2023-02-27T07:17:29.408Z,100.00
2023-02-27T07:22:25.716Z,100.00
2023-02-27T07:27:22.073Z,100.00
2023-02-27T07:32:18.407Z,100.00
2023-02-27T07:37:15.005Z,100.00
2023-02-27T07:42:11.493Z,100.00
2023-02-27T07:47:07.900Z,100.00
2023-02-27T07:52:04.316Z,100.00
2023-02-27T07:57:00.992Z,100.00
2023-02-27T08:01:57.352Z,100.00
2023-02-27T08:06:53.663Z,100.00
2023-02-27T08:11:50.037Z,100.00
2023-02-27T08:16:46.328Z,100.00
2023-02-27T08:21:42.966Z,100.00
2023-02-27T08:26:39.379Z,100.00
2023-02-27T08:31:35.824Z,100.00
2023-02-27T08:36:32.460Z,100.00
2023-02-27T08:41:28.763Z,100.00
2023-02-27T08:46:25.448Z,100.00
2023-02-27T08:51:22.352Z,100.00
2023-02-27T08:56:18.750Z,100.00
2023-02-27T09:01:15.103Z,100.00
2023-02-27T09:06:11.704Z,100.00
2023-02-27T09:11:08.113Z,100.00
2023-02-27T09:16:04.808Z,100.00
2023-02-27T09:21:01.191Z,100.00
2023-02-27T09:25:57.560Z,100.00
2023-02-27T09:30:53.928Z,100.00
2023-02-27T09:35:50.230Z,100.00
2023-02-27T09:40:49.725Z,100.00
2023-02-27T09:45:50.164Z,100.00
2023-02-27T09:50:52.437Z,100.00
2023-02-27T09:55:50.111Z,100.00
2023-02-27T10:00:57.406Z,100.00
2023-02-27T10:06:27.515Z,100.00
2023-02-27T10:11:44.575Z,100.00
2023-02-27T10:16:42.420Z,100.00
2023-02-27T10:21:43.397Z,100.00
2023-02-27T10:26:43.733Z,100.00
2023-02-27T10:31:41.106Z,100.00
2023-02-27T10:36:37.657Z,100.00
2023-02-27T10:41:36.182Z,100.00
2023-02-27T10:46:38.619Z,100.00
2023-02-27T10:51:38.476Z,100.00
2023-02-27T10:56:35.630Z,100.00
2023-02-27T11:01:44.395Z,100.00
2023-02-27T11:06:42.223Z,100.00
2023-02-27T11:11:39.197Z,100.00
2023-02-27T11:16:50.163Z,100.00
2023-02-27T11:22:00.188Z,100.00
2023-02-27T11:26:59.712Z,100.00
2023-02-27T11:32:13.415Z,100.00
2023-02-27T11:37:30.559Z,100.00
2023-02-27T11:42:32.149Z,100.00
2023-02-27T11:47:33.322Z,100.00
2023-02-27T11:52:49.497Z,100.00
2023-02-27T11:57:50.550Z,100.00
2023-02-27T12:03:02.491Z,100.00
2023-02-27T12:08:13.816Z,100.00
2023-02-27T12:13:26.026Z,100.00
2023-02-27T12:18:35.763Z,100.00
2023-02-27T12:23:47.756Z,100.00
2023-02-27T12:29:17.578Z,100.00
2023-02-27T12:34:35.873Z,100.00
2023-02-27T12:39:33.178Z,100.00
2023-02-27T12:44:54.100Z,100.00
2023-02-27T12:50:00.483Z,100.00
2023-02-27T12:55:13.258Z,100.00
2023-02-27T13:00:22.324Z,100.00
2023-02-27T13:05:24.816Z,100.00
2023-02-27T13:10:34.408Z,88.25
2023-02-27T13:15:37.152Z,87.39
2023-02-27T13:20:44.438Z,88.35
2023-02-27T13:25:44.870Z,91.84
2023-02-27T13:31:17.228Z,87.06
2023-02-27T13:36:25.423Z,81.42
2023-02-27T13:41:24.476Z,74.43
2023-02-27T13:46:32.215Z,81.88
2023-02-27T13:51:50.809Z,82.79
2023-02-27T13:56:51.162Z,78.10
2023-02-27T14:02:16.761Z,77.90
2023-02-27T14:07:18.644Z,79.27
2023-02-27T14:12:46.372Z,82.77
2023-02-27T14:17:45.479Z,82.63
2023-02-27T14:22:41.793Z,85.44
2023-02-27T14:27:44.096Z,81.93
2023-02-27T14:32:40.757Z,76.46
2023-02-27T14:37:37.267Z,75.55
2023-02-27T14:43:03.932Z,75.05
2023-02-27T14:48:00.496Z,75.82
2023-02-27T14:52:56.947Z,79.23
2023-02-27T14:58:17.847Z,84.01
2023-02-27T15:03:22.585Z,82.88
2023-02-27T15:08:26.945Z,85.09
2023-02-27T15:13:34.550Z,82.63
2023-02-27T15:18:30.950Z,77.09
2023-02-27T15:23:28.700Z,77.47
2023-02-27T15:28:30.318Z,82.70
2023-02-27T15:33:32.359Z,82.00
2023-02-27T15:38:35.134Z,86.52
2023-02-27T15:43:31.948Z,88.07
2023-02-27T15:48:29.812Z,89.84
2023-02-27T15:53:27.995Z,89.76
2023-02-27T15:58:34.134Z,89.34
2023-02-27T16:03:43.940Z,86.00
2023-02-27T16:08:46.506Z,87.87
2023-02-27T16:13:42.865Z,88.80
2023-02-27T16:18:48.615Z,93.38
2023-02-27T16:23:46.456Z,92.41
2023-02-27T16:28:55.747Z,95.22
2023-02-27T16:33:53.840Z,99.10
2023-02-27T16:38:50.286Z,100.00
2023-02-27T16:43:47.839Z,100.00
2023-02-27T16:48:44.207Z,100.00
2023-02-27T16:53:40.753Z,100.00
2023-02-27T16:58:37.750Z,100.00
2023-02-27T17:03:34.844Z,100.00
2023-02-27T17:08:31.340Z,100.00
2023-02-27T17:13:27.745Z,100.00
2023-02-27T17:18:24.168Z,100.00
2023-02-27T17:23:20.498Z,100.00
2023-02-27T17:28:16.836Z,100.00
2023-02-27T17:33:13.228Z,100.00
2023-02-27T17:38:09.759Z,100.00
2023-02-27T17:43:06.439Z,100.00
2023-02-27T17:48:02.924Z,100.00
2023-02-27T17:52:59.329Z,100.00
2023-02-27T17:57:55.675Z,100.00
2023-02-27T18:02:52.066Z,100.00
2023-02-27T18:07:48.613Z,100.00
2023-02-27T18:12:45.151Z,100.00
2023-02-27T18:17:43.422Z,100.00
2023-02-27T18:22:39.906Z,100.00
2023-02-27T18:27:36.444Z,100.00
2023-02-27T18:32:32.865Z,100.00
2023-02-27T18:37:29.270Z,100.00
2023-02-27T18:42:25.703Z,100.00
2023-02-27T18:47:22.060Z,100.00
2023-02-27T18:52:18.593Z,100.00
2023-02-27T18:57:15.565Z,100.00
2023-02-27T19:02:17.621Z,100.00
2023-02-27T19:07:15.272Z,100.00
2023-02-27T19:12:11.668Z,100.00
2023-02-27T19:17:08.835Z,100.00
2023-02-27T19:22:05.268Z,100.00
2023-02-27T19:27:01.699Z,100.00
2023-02-27T19:31:58.144Z,100.00
2023-02-27T19:36:54.575Z,100.00
2023-02-27T19:41:50.978Z,100.00
2023-02-27T19:46:51.268Z,100.00
2023-02-27T19:51:47.792Z,100.00
2023-02-27T19:56:44.455Z,100.00
2023-02-27T20:01:41.460Z,100.00
2023-02-27T20:06:41.584Z,100.00
2023-02-27T20:11:38.018Z,100.00
2023-02-27T20:16:36.720Z,100.00
2023-02-27T20:21:34.326Z,100.00
2023-02-27T20:26:34.112Z,100.00
2023-02-27T20:31:32.603Z,100.00
2023-02-27T20:36:29.270Z,100.00
2023-02-27T20:41:29.052Z,100.00
2023-02-27T20:46:28.496Z,100.00
2023-02-27T20:51:25.357Z,100.00
2023-02-27T20:56:24.553Z,100.00
2023-02-27T21:01:21.961Z,100.00
2023-02-27T21:06:19.116Z,100.00
2023-02-27T21:11:18.099Z,100.00
2023-02-27T21:16:15.409Z,100.00
2023-02-27T21:21:15.732Z,100.00
2023-02-27T21:26:20.998Z,100.00
2023-02-27T21:31:19.672Z,100.00
2023-02-27T21:36:16.995Z,100.00
2023-02-27T21:41:13.381Z,100.00
2023-02-27T21:46:12.623Z,100.00
2023-02-27T21:51:09.386Z,100.00
2023-02-27T21:56:08.166Z,100.00
2023-02-27T22:01:15.823Z,100.00
2023-02-27T22:06:13.775Z,100.00
2023-02-27T22:11:10.737Z,100.00
2023-02-27T22:16:10.075Z,100.00
2023-02-27T22:21:18.975Z,100.00
2023-02-27T22:26:19.842Z,100.00
2023-02-27T22:31:18.490Z,100.00
2023-02-27T22:36:18.373Z,100.00
2023-02-27T22:41:27.068Z,100.00
2023-02-27T22:46:24.722Z,100.00
2023-02-27T22:51:21.577Z,100.00
2023-02-27T22:56:18.427Z,100.00
2023-02-27T23:01:17.857Z,100.00
2023-02-27T23:06:17.038Z,100.00
2023-02-27T23:11:15.019Z,100.00
2023-02-27T23:16:12.375Z,100.00
2023-02-27T23:21:10.184Z,100.00
2023-02-27T23:26:06.891Z,100.00
2023-02-27T23:31:05.496Z,100.00
2023-02-27T23:36:03.001Z,100.00
2023-02-27T23:41:05.485Z,100.00
2023-02-27T23:46:09.740Z,100.00
2023-02-27T23:51:07.505Z,100.00
2023-02-27T23:56:24.987Z,100.00
